createdAt,value
2023-10-23T00:00:24.606Z,100895.44
2023-10-23T00:03:13.806Z,100894.28
2023-10-23T00:05:42.961Z,100897.52
2023-10-23T00:08:11.849Z,100897.09
2023-10-23T00:10:41.016Z,100897.72
2023-10-23T00:13:10.466Z,100895.38
2023-10-23T00:15:38.932Z,100897.73
2023-10-23T00:18:07.424Z,100895.98
2023-10-23T00:20:36.265Z,100890.37
2023-10-23T00:23:04.765Z,100889.66
2023-10-23T00:25:34.160Z,100893.31
2023-10-23T00:28:04.092Z,100895.04
2023-10-23T00:30:37.436Z,100897.84
2023-10-23T00:33:06.042Z,100896.53
2023-10-23T00:35:35.660Z,100896.58
2023-10-23T00:38:04.514Z,100897.14
2023-10-23T00:40:34.160Z,100900.26
2023-10-23T00:43:20.106Z,100894.27
2023-10-23T00:45:52.840Z,100894.79
2023-10-23T00:48:22.971Z,100904.44
2023-10-23T00:50:52.801Z,100909.05
2023-10-23T00:53:29.690Z,100913.42
2023-10-23T00:56:00.056Z,100916.80
2023-10-23T00:58:29.123Z,100920.98
2023-10-23T01:00:59.674Z,100920.91
2023-10-23T01:03:28.428Z,100922.27
2023-10-23T01:05:57.576Z,100923.66
2023-10-23T01:08:26.677Z,100926.71
2023-10-23T01:10:57.163Z,100929.06
2023-10-23T01:13:27.581Z,100933.16
2023-10-23T01:15:56.247Z,100929.84
2023-10-23T01:18:24.714Z,100930.77
2023-10-23T01:20:53.387Z,100934.61
2023-10-23T01:23:27.259Z,100934.69
2023-10-23T01:25:56.127Z,100934.42
2023-10-23T01:28:24.602Z,100943.38
2023-10-23T01:30:52.965Z,100947.80
2023-10-23T01:33:21.563Z,100951.04
2023-10-23T01:35:50.110Z,100955.74
2023-10-23T01:38:19.715Z,100959.44
2023-10-23T01:40:48.396Z,100959.29
2023-10-23T01:43:18.050Z,100957.46
2023-10-23T01:45:46.474Z,100960.25
2023-10-23T01:48:15.273Z,100958.97
2023-10-23T01:50:43.882Z,100959.48
2023-10-23T01:53:12.352Z,100958.41
2023-10-23T01:55:40.931Z,100956.45
2023-10-23T01:58:09.542Z,100955.48
2023-10-23T02:00:38.068Z,100949.38
2023-10-23T02:03:06.984Z,100948.34
2023-10-23T02:05:36.078Z,100943.60
2023-10-23T02:08:05.693Z,100947.61
2023-10-23T02:10:34.036Z,100950.42
2023-10-23T02:13:03.290Z,100954.31
2023-10-23T02:15:31.889Z,100954.59
2023-10-23T02:18:00.378Z,100960.33
2023-10-23T02:20:30.240Z,100969.95
2023-10-23T02:22:59.055Z,100971.36
2023-10-23T02:25:27.617Z,100973.36
2023-10-23T02:27:58.196Z,100974.95
2023-10-23T02:30:27.056Z,100973.52
2023-10-23T02:32:55.777Z,100973.34
2023-10-23T02:35:24.235Z,100981.33
2023-10-23T02:37:53.355Z,100987.16
2023-10-23T02:40:23.372Z,100992.98
2023-10-23T02:42:52.043Z,100995.96
2023-10-23T02:45:20.722Z,100995.93
2023-10-23T02:47:49.520Z,100999.02
2023-10-23T02:50:18.206Z,100997.71
2023-10-23T02:52:47.051Z,100997.60
2023-10-23T02:55:16.082Z,100990.89
2023-10-23T02:57:44.777Z,100984.15
2023-10-23T03:00:16.805Z,100984.13
2023-10-23T03:02:45.960Z,100986.22
2023-10-23T03:05:15.737Z,100996.69
2023-10-23T03:07:44.697Z,101002.02
2023-10-23T03:10:13.374Z,101002.44
2023-10-23T03:12:41.906Z,101013.38
2023-10-23T03:15:10.996Z,101011.99
2023-10-23T03:17:40.179Z,101012.96
2023-10-23T03:20:10.302Z,101014.75
2023-10-23T03:22:39.469Z,101014.13
2023-10-23T03:25:09.574Z,101012.33
2023-10-23T03:27:38.202Z,101004.46
2023-10-23T03:30:07.755Z,101004.67
2023-10-23T03:32:36.735Z,101010.80
2023-10-23T03:35:06.032Z,101009.58
2023-10-23T03:37:34.499Z,101015.48
2023-10-23T03:40:02.899Z,101020.70
2023-10-23T03:42:32.549Z,101023.33
2023-10-23T03:45:02.440Z,101023.13
2023-10-23T03:47:30.965Z,101031.21
2023-10-23T03:49:59.388Z,101031.77
2023-10-23T03:52:28.302Z,101034.56
2023-10-23T03:54:56.731Z,101038.04
2023-10-23T03:57:25.384Z,101040.82
2023-10-23T03:59:54.793Z,101046.05
2023-10-23T04:02:23.034Z,101052.00
2023-10-23T04:04:51.540Z,101072.17
2023-10-23T04:07:20.002Z,101086.45
2023-10-23T04:09:48.424Z,101083.85
2023-10-23T04:12:16.992Z,101085.40
2023-10-23T04:14:48.674Z,101080.19
2023-10-23T04:17:17.210Z,101075.42
2023-10-23T04:19:49.654Z,101077.04
2023-10-23T04:22:17.959Z,101075.61
2023-10-23T04:24:48.860Z,101075.67
2023-10-23T04:27:17.597Z,101079.33
2023-10-23T04:29:46.373Z,101087.27
2023-10-23T04:32:15.075Z,101094.61
2023-10-23T04:34:43.676Z,101107.19
2023-10-23T04:37:12.240Z,101109.63
2023-10-23T04:39:41.174Z,101113.34
2023-10-23T04:42:09.709Z,101118.93
2023-10-23T04:44:38.186Z,101127.99
2023-10-23T04:47:06.870Z,101131.11
2023-10-23T04:49:35.248Z,101129.69
2023-10-23T04:52:04.320Z,101130.08
2023-10-23T04:54:32.954Z,101134.25
2023-10-23T04:57:01.614Z,101136.84
2023-10-23T04:59:30.211Z,101147.39
2023-10-23T05:01:58.917Z,101152.57
2023-10-23T05:04:34.296Z,101164.09
2023-10-23T05:07:03.519Z,101174.77
2023-10-23T05:09:33.401Z,101181.97
2023-10-23T05:12:02.887Z,101192.67
2023-10-23T05:14:38.783Z,101203.74
2023-10-23T05:17:09.820Z,101212.39
2023-10-23T05:19:38.829Z,101221.58
2023-10-23T05:22:07.321Z,101227.42
2023-10-23T05:24:35.624Z,101232.91
2023-10-23T05:27:04.589Z,101235.55
2023-10-23T05:29:33.259Z,101242.14
2023-10-23T05:32:01.751Z,101252.41
2023-10-23T05:34:30.968Z,101261.16
2023-10-23T05:36:59.393Z,101266.38
2023-10-23T05:39:28.496Z,101273.46
2023-10-23T05:41:57.447Z,101278.80
2023-10-23T05:44:29.524Z,101284.45
2023-10-23T05:46:59.598Z,101283.66
2023-10-23T05:49:29.442Z,101288.31
2023-10-23T05:51:58.340Z,101290.55
2023-10-23T05:54:27.002Z,101292.96
2023-10-23T05:56:55.153Z,101297.11
2023-10-23T05:59:23.572Z,101302.66
2023-10-23T06:01:52.281Z,101303.48
2023-10-23T06:04:20.676Z,101307.10
2023-10-23T06:06:49.421Z,101307.38
2023-10-23T06:09:18.119Z,101306.96
2023-10-23T06:11:46.999Z,101310.58
2023-10-23T06:14:15.178Z,101313.90
2023-10-23T06:16:43.636Z,101321.05
2023-10-23T06:19:12.231Z,101317.89
2023-10-23T06:21:40.621Z,101318.05
2023-10-23T06:24:09.286Z,101317.88
2023-10-23T06:26:37.561Z,101318.58
2023-10-23T06:29:06.324Z,101318.91
2023-10-23T06:31:34.904Z,101318.34
2023-10-23T06:34:03.408Z,101320.98
2023-10-23T06:36:33.307Z,101319.61
2023-10-23T06:39:01.884Z,101319.98
2023-10-23T06:41:31.810Z,101322.64
2023-10-23T06:44:00.293Z,101327.73
2023-10-23T06:46:28.962Z,101328.05
2023-10-23T06:48:57.958Z,101331.05
2023-10-23T06:51:26.429Z,101334.52
2023-10-23T06:53:55.161Z,101336.42
2023-10-23T06:56:23.741Z,101335.71
2023-10-23T06:58:52.280Z,101344.10
2023-10-23T07:01:30.391Z,101343.93
2023-10-23T07:04:07.859Z,101349.58
2023-10-23T07:06:37.195Z,101350.30
2023-10-23T07:09:06.132Z,101349.78
2023-10-23T07:11:34.569Z,101355.41
2023-10-23T07:14:03.170Z,101352.48
2023-10-23T07:16:31.869Z,101356.20
2023-10-23T07:19:00.461Z,101356.77
2023-10-23T07:21:28.798Z,101353.15
2023-10-23T07:27:40.475Z,101353.52
2023-10-23T07:30:09.421Z,101355.15
2023-10-23T07:32:38.010Z,101356.70
2023-10-23T07:35:09.405Z,101349.89
2023-10-23T07:37:39.452Z,101352.65
2023-10-23T07:40:08.687Z,101350.19
2023-10-23T07:42:37.071Z,101355.96
2023-10-23T07:45:06.767Z,101354.41
2023-10-23T07:47:35.276Z,101357.89
2023-10-23T07:50:06.095Z,101356.61
2023-10-23T07:52:34.236Z,101355.30
2023-10-23T07:55:02.932Z,101359.59
2023-10-23T07:57:31.484Z,101357.39
2023-10-23T08:00:00.071Z,101360.59
2023-10-23T08:02:28.734Z,101358.16
2023-10-23T08:04:57.421Z,101361.70
2023-10-23T08:07:26.326Z,101361.38
2023-10-23T08:09:55.043Z,101365.08
2023-10-23T08:12:23.326Z,101369.27
2023-10-23T08:14:52.473Z,101367.32
2023-10-23T08:17:41.396Z,101367.10
2023-10-23T08:20:10.984Z,101366.45
2023-10-23T08:22:39.552Z,101366.37
2023-10-23T08:25:08.663Z,101366.56
2023-10-23T08:27:37.043Z,101364.63
2023-10-23T08:30:06.413Z,101365.68
2023-10-23T08:32:49.637Z,101361.66
2023-10-23T08:35:21.428Z,101363.57
2023-10-23T08:37:49.947Z,101357.77
2023-10-23T08:40:18.703Z,101358.88
2023-10-23T08:42:47.928Z,101351.58
2023-10-23T08:45:17.895Z,101347.70
2023-10-23T08:47:47.856Z,101352.02
2023-10-23T08:50:17.200Z,101353.02
2023-10-23T08:52:50.869Z,101355.61
2023-10-23T08:55:21.123Z,101357.66
2023-10-23T08:57:54.402Z,101355.76
2023-10-23T09:00:26.391Z,101354.16
2023-10-23T09:02:56.266Z,101354.85
2023-10-23T09:26:29.419Z,101344.27
2023-10-23T09:28:58.369Z,101340.10
2023-10-23T09:31:25.607Z,101335.07
2023-10-23T09:33:52.898Z,101333.80
2023-10-23T09:36:21.386Z,101333.39
2023-10-23T09:38:59.948Z,101329.20
2023-10-23T09:41:29.351Z,101326.59
2023-10-23T09:43:58.214Z,101329.05
2023-10-23T09:46:29.521Z,101325.73
2023-10-23T09:49:01.428Z,101326.70
2023-10-23T09:51:32.762Z,101323.21
2023-10-23T09:54:07.371Z,101321.40
2023-10-23T09:56:35.723Z,101319.20
2023-10-23T09:59:08.708Z,101312.69
2023-10-23T10:01:44.096Z,101309.39
2023-10-23T10:04:24.079Z,101304.86
2023-10-23T10:07:06.394Z,101309.32
2023-10-23T10:09:38.503Z,101307.70
2023-10-23T10:12:11.173Z,101299.57
2023-10-23T10:14:42.381Z,101304.54
2023-10-23T10:17:11.958Z,101298.42
2023-10-23T10:19:41.365Z,101294.25
2023-10-23T10:22:20.996Z,101293.02
2023-10-23T10:24:49.673Z,101293.00
2023-10-23T10:27:17.442Z,101290.92
2023-10-23T10:29:45.950Z,101292.72
2023-10-23T10:32:15.594Z,101284.71
2023-10-23T10:34:46.640Z,101282.14
2023-10-23T10:39:53.333Z,101280.26
2023-10-23T10:42:29.877Z,101276.19
2023-10-23T10:45:08.606Z,101280.19
2023-10-23T10:47:42.406Z,101278.70
2023-10-23T10:50:11.219Z,101274.84
2023-10-23T10:52:40.222Z,101271.77
2023-10-23T10:55:09.999Z,101272.83
2023-10-23T10:57:47.535Z,101271.50
2023-10-23T11:00:15.887Z,101270.52
2023-10-23T11:02:43.337Z,101264.31
2023-10-23T11:05:13.480Z,101263.23
2023-10-23T11:07:41.675Z,101259.63
2023-10-23T11:10:10.246Z,101260.30
2023-10-23T11:12:39.678Z,101258.03
2023-10-23T11:15:07.708Z,101254.60
2023-10-23T11:17:37.244Z,101256.86
2023-10-23T11:20:09.279Z,101260.89
2023-10-23T11:22:39.289Z,101260.77
2023-10-23T11:25:09.792Z,101255.02
2023-10-23T11:27:37.997Z,101253.09
2023-10-23T11:30:07.085Z,101254.02
2023-10-23T11:32:35.101Z,101255.56
2023-10-23T11:35:05.828Z,101255.79
2023-10-23T11:37:38.049Z,101254.60
2023-10-23T11:40:07.647Z,101257.48
2023-10-23T11:42:50.278Z,101256.17
2023-10-23T11:45:18.435Z,101257.09
2023-10-23T11:47:46.757Z,101259.09
2023-10-23T11:50:14.944Z,101260.99
2023-10-23T11:52:48.492Z,101256.17
2023-10-23T11:55:17.108Z,101252.23
2023-10-23T11:57:51.329Z,101247.82
2023-10-23T12:00:21.178Z,101251.13
2023-10-23T12:02:48.992Z,101251.73
2023-10-23T12:05:18.980Z,101251.92
2023-10-23T12:07:48.116Z,101251.73
2023-10-23T12:10:19.798Z,101251.52
2023-10-23T12:12:48.367Z,101253.05
2023-10-23T12:15:16.395Z,101253.79
2023-10-23T12:17:43.777Z,101251.48
2023-10-23T12:20:12.591Z,101252.61
2023-10-23T12:22:45.368Z,101244.30
2023-10-23T12:25:14.172Z,101241.84
2023-10-23T12:27:42.079Z,101241.57
2023-10-23T12:30:15.039Z,101242.45
2023-10-23T12:33:16.249Z,101241.95
2023-10-23T12:35:31.032Z,101235.81
2023-10-23T12:37:58.942Z,101231.89
2023-10-23T12:40:30.264Z,101233.73
2023-10-23T12:43:00.710Z,101233.08
2023-10-23T12:45:27.874Z,101226.36
2023-10-23T12:47:55.049Z,101224.64
2023-10-23T12:50:22.126Z,101217.30
2023-10-23T12:52:49.681Z,101219.61
2023-10-23T21:26:35.015Z,101406.91
2023-10-23T21:29:20.193Z,101402.05
2023-10-23T21:31:50.679Z,101402.42
2023-10-23T21:34:20.608Z,101401.39
2023-10-23T21:36:49.442Z,101398.09
2023-10-23T21:39:17.810Z,101397.58
2023-10-23T21:41:47.135Z,101401.27
2023-10-23T21:44:15.505Z,101399.71
2023-10-23T21:46:43.932Z,101399.90
2023-10-23T21:49:12.839Z,101402.36
2023-10-23T21:51:42.390Z,101407.09
2023-10-23T21:54:11.711Z,101407.98
2023-10-23T21:57:21.049Z,101406.40
2023-10-23T21:59:30.030Z,101408.67
2023-10-23T22:01:58.910Z,101413.56
2023-10-23T22:04:27.957Z,101415.14
2023-10-23T22:06:57.233Z,101415.15
2023-10-23T22:09:27.246Z,101411.83
2023-10-23T22:11:56.211Z,101408.52
2023-10-23T22:14:25.113Z,101407.30
2023-10-23T22:16:53.719Z,101410.98
2023-10-23T22:19:22.396Z,101408.89
2023-10-23T22:21:50.812Z,101410.63
2023-10-23T22:24:19.228Z,101411.89
2023-10-23T22:26:48.284Z,101413.98
2023-10-23T22:29:16.823Z,101408.59
2023-10-23T22:31:45.646Z,101404.92
2023-10-23T22:34:14.382Z,101400.58
2023-10-23T22:36:43.013Z,101403.90
2023-10-23T22:39:12.074Z,101404.95
2023-10-23T22:41:41.692Z,101403.91
2023-10-23T22:44:11.191Z,101403.23
2023-10-23T22:46:39.484Z,101403.73
2023-10-23T22:49:08.220Z,101399.91
2023-10-23T22:51:37.708Z,101399.91
2023-10-23T22:54:07.266Z,101399.21
2023-10-23T22:56:37.382Z,101403.92
2023-10-23T22:59:06.581Z,101404.62
2023-10-23T23:01:36.449Z,101405.48
2023-10-23T23:04:05.690Z,101405.15
2023-10-23T23:06:35.449Z,101400.10
2023-10-23T23:09:05.286Z,101397.82
2023-10-23T23:11:34.247Z,101402.52
2023-10-23T23:14:03.620Z,101402.88
2023-10-23T23:16:37.225Z,101404.27
2023-10-23T23:19:11.954Z,101411.58
2023-10-23T23:21:46.642Z,101417.11
2023-10-23T23:24:15.233Z,101423.89
2023-10-23T23:26:43.839Z,101416.23
2023-10-23T23:29:12.224Z,101419.02
2023-10-23T23:31:40.995Z,101417.77
2023-10-23T23:34:09.773Z,101420.57
2023-10-23T23:36:38.578Z,101416.56
2023-10-23T23:39:06.989Z,101413.06
2023-10-23T23:41:35.340Z,101410.80
2023-10-23T23:44:04.062Z,101405.22
2023-10-23T23:46:32.380Z,101406.25
2023-10-23T23:49:01.076Z,101404.15
2023-10-23T23:51:29.859Z,101401.88
2023-10-23T23:53:58.459Z,101400.83
2023-10-23T23:56:27.026Z,101401.20
2023-10-23T23:58:55.485Z,101397.53
